sensor_id;sensor_type;location;lat;lon;timestamp;pressure;altitude;pressure_sealevel;temperature;humidity
53270;BME280;39159;45.634;9.420;2023-04-28T00:00:46;99170.06;;;12.39;76.51
53270;BME280;39159;45.634;9.420;2023-04-28T00:03:12;99173.09;;;12.37;76.24
53270;BME280;39159;45.634;9.420;2023-04-28T00:05:37;99172.28;;;12.37;76.71
53270;BME280;39159;45.634;9.420;2023-04-28T00:08:03;99172.09;;;12.33;77.15
53270;BME280;39159;45.634;9.420;2023-04-28T00:10:31;99173.69;;;12.26;77.74
53270;BME280;39159;45.634;9.420;2023-04-28T00:12:57;99173.00;;;12.20;78.14
53270;BME280;39159;45.634;9.420;2023-04-28T00:15:23;99173.31;;;12.18;78.44
53270;BME280;39159;45.634;9.420;2023-04-28T00:17:48;99172.00;;;12.16;78.19
53270;BME280;39159;45.634;9.420;2023-04-28T00:20:14;99165.56;;;12.12;78.33
53270;BME280;39159;45.634;9.420;2023-04-28T00:22:40;99165.88;;;12.10;78.58
53270;BME280;39159;45.634;9.420;2023-04-28T00:25:06;99163.28;;;12.14;78.33
53270;BME280;39159;45.634;9.420;2023-04-28T00:27:32;99162.69;;;12.17;78.40
53270;BME280;39159;45.634;9.420;2023-04-28T00:29:58;99159.44;;;12.15;77.95
53270;BME280;39159;45.634;9.420;2023-04-28T00:32:23;99161.19;;;12.11;78.19
53270;BME280;39159;45.634;9.420;2023-04-28T00:34:49;99164.44;;;12.13;78.01
53270;BME280;39159;45.634;9.420;2023-04-28T00:37:14;99161.69;;;12.13;77.94
53270;BME280;39159;45.634;9.420;2023-04-28T00:39:40;99172.34;;;12.14;77.78
53270;BME280;39159;45.634;9.420;2023-04-28T00:42:06;99158.31;;;12.16;78.14
53270;BME280;39159;45.634;9.420;2023-04-28T00:44:31;99159.16;;;12.16;77.80
53270;BME280;39159;45.634;9.420;2023-04-28T00:46:58;99154.19;;;12.18;77.60
53270;BME280;39159;45.634;9.420;2023-04-28T00:49:24;99154.19;;;12.18;77.70
53270;BME280;39159;45.634;9.420;2023-04-28T00:51:50;99152.25;;;12.19;77.18
53270;BME280;39159;45.634;9.420;2023-04-28T00:54:16;99157.16;;;12.08;77.83
53270;BME280;39159;45.634;9.420;2023-04-28T00:56:42;99144.72;;;12.02;78.23
53270;BME280;39159;45.634;9.420;2023-04-28T00:59:08;99146.16;;;11.99;78.70
53270;BME280;39159;45.634;9.420;2023-04-28T01:01:34;99145.97;;;11.96;78.84
53270;BME280;39159;45.634;9.420;2023-04-28T01:04:00;99138.41;;;11.93;79.51
53270;BME280;39159;45.634;9.420;2023-04-28T01:06:26;99137.69;;;11.87;80.15
53270;BME280;39159;45.634;9.420;2023-04-28T01:08:53;99137.50;;;11.83;79.80
53270;BME280;39159;45.634;9.420;2023-04-28T01:11:18;99147.16;;;11.81;80.22
53270;BME280;39159;45.634;9.420;2023-04-28T01:13:44;99140.38;;;11.78;80.82
53270;BME280;39159;45.634;9.420;2023-04-28T01:16:09;99143.13;;;11.78;80.00
53270;BME280;39159;45.634;9.420;2023-04-28T01:18:35;99130.25;;;11.79;79.84
53270;BME280;39159;45.634;9.420;2023-04-28T01:21:01;99121.75;;;11.80;79.87
53270;BME280;39159;45.634;9.420;2023-04-28T01:23:28;99112.09;;;11.83;78.76
53270;BME280;39159;45.634;9.420;2023-04-28T01:25:54;99122.03;;;11.79;79.38
53270;BME280;39159;45.634;9.420;2023-04-28T01:28:19;99119.91;;;11.76;79.70
53270;BME280;39159;45.634;9.420;2023-04-28T01:30:45;99131.34;;;11.78;79.83
53270;BME280;39159;45.634;9.420;2023-04-28T01:33:10;99133.28;;;11.77;79.51
53270;BME280;39159;45.634;9.420;2023-04-28T01:35:36;99134.91;;;11.78;82.05
53270;BME280;39159;45.634;9.420;2023-04-28T01:38:01;99139.56;;;11.78;80.07
53270;BME280;39159;45.634;9.420;2023-04-28T01:40:27;99138.38;;;11.70;80.57
53270;BME280;39159;45.634;9.420;2023-04-28T01:42:52;99146.72;;;11.65;80.83
53270;BME280;39159;45.634;9.420;2023-04-28T01:45:17;99145.22;;;11.59;80.24
53270;BME280;39159;45.634;9.420;2023-04-28T01:47:43;99151.78;;;11.58;80.41
53270;BME280;39159;45.634;9.420;2023-04-28T01:50:09;99153.59;;;11.62;80.73
53270;BME280;39159;45.634;9.420;2023-04-28T01:52:34;99157.25;;;11.58;81.06
53270;BME280;39159;45.634;9.420;2023-04-28T01:55:00;99148.50;;;11.47;82.46
53270;BME280;39159;45.634;9.420;2023-04-28T01:57:26;99139.91;;;11.40;82.30
53270;BME280;39159;45.634;9.420;2023-04-28T01:59:53;99149.53;;;11.37;83.79
53270;BME280;39159;45.634;9.420;2023-04-28T02:02:19;99151.47;;;11.37;85.34
53270;BME280;39159;45.634;9.420;2023-04-28T02:04:44;99153.41;;;11.36;84.10
53270;BME280;39159;45.634;9.420;2023-04-28T02:07:10;99168.78;;;11.32;84.15
53270;BME280;39159;45.634;9.420;2023-04-28T02:09:35;99161.19;;;11.29;84.47
53270;BME280;39159;45.634;9.420;2023-04-28T02:12:01;99173.88;;;11.25;85.24
53270;BME280;39159;45.634;9.420;2023-04-28T02:14:27;99169.19;;;11.26;85.18
53270;BME280;39159;45.634;9.420;2023-04-28T02:16:53;99165.16;;;11.23;85.92
53270;BME280;39159;45.634;9.420;2023-04-28T02:19:18;99163.84;;;11.20;85.94
53270;BME280;39159;45.634;9.420;2023-04-28T02:21:44;99167.69;;;11.19;86.80
53270;BME280;39159;45.634;9.420;2023-04-28T02:24:09;99177.44;;;11.12;86.85
53270;BME280;39159;45.634;9.420;2023-04-28T02:26:35;99174.38;;;11.13;87.04
53270;BME280;39159;45.634;9.420;2023-04-28T02:29:00;99178.03;;;11.09;87.92
53270;BME280;39159;45.634;9.420;2023-04-28T02:31:28;99180.25;;;11.07;88.34
53270;BME280;39159;45.634;9.420;2023-04-28T02:33:54;99183.22;;;10.96;89.59
53270;BME280;39159;45.634;9.420;2023-04-28T02:36:20;99176.53;;;10.89;89.34
53270;BME280;39159;45.634;9.420;2023-04-28T02:38:46;99178.25;;;10.85;89.87
53270;BME280;39159;45.634;9.420;2023-04-28T02:41:11;99175.00;;;10.83;90.65
53270;BME280;39159;45.634;9.420;2023-04-28T02:43:39;99184.81;;;10.84;90.48
53270;BME280;39159;45.634;9.420;2023-04-28T02:46:05;99175.84;;;10.83;90.25
53270;BME280;39159;45.634;9.420;2023-04-28T02:48:30;99175.22;;;10.86;93.51
53270;BME280;39159;45.634;9.420;2023-04-28T02:50:57;99166.34;;;10.81;92.09
53270;BME280;39159;45.634;9.420;2023-04-28T02:53:23;99154.19;;;10.73;92.15
53270;BME280;39159;45.634;9.420;2023-04-28T02:55:48;99157.63;;;10.65;92.74
53270;BME280;39159;45.634;9.420;2023-04-28T02:58:14;99158.03;;;10.58;93.62
53270;BME280;39159;45.634;9.420;2023-04-28T03:00:40;99150.97;;;10.57;93.18
53270;BME280;39159;45.634;9.420;2023-04-28T03:03:05;99139.25;;;10.56;94.03
53270;BME280;39159;45.634;9.420;2023-04-28T03:05:31;99133.78;;;10.56;94.02
53270;BME280;39159;45.634;9.420;2023-04-28T03:07:56;99129.63;;;10.59;95.55
53270;BME280;39159;45.634;9.420;2023-04-28T03:10:22;99131.44;;;10.64;94.40
53270;BME280;39159;45.634;9.420;2023-04-28T03:12:47;99127.59;;;10.65;94.60
53270;BME280;39159;45.634;9.420;2023-04-28T03:15:13;99127.59;;;10.65;94.07
53270;BME280;39159;45.634;9.420;2023-04-28T03:17:38;99124.88;;;10.65;94.11
53270;BME280;39159;45.634;9.420;2023-04-28T03:20:07;99122.13;;;10.65;94.35
53270;BME280;39159;45.634;9.420;2023-04-28T03:22:33;99130.31;;;10.65;95.09
53270;BME280;39159;45.634;9.420;2023-04-28T03:24:59;99142.16;;;10.60;95.34
53270;BME280;39159;45.634;9.420;2023-04-28T03:27:25;99141.97;;;10.56;96.88
53270;BME280;39159;45.634;9.420;2023-04-28T03:29:50;99152.06;;;10.56;97.28
53270;BME280;39159;45.634;9.420;2023-04-28T03:32:16;99163.06;;;10.51;98.18
53270;BME280;39159;45.634;9.420;2023-04-28T03:34:41;99150.84;;;10.48;99.39
53270;BME280;39159;45.634;9.420;2023-04-28T03:37:07;99143.28;;;10.45;98.70
53270;BME280;39159;45.634;9.420;2023-04-28T03:39:32;99155.22;;;10.49;99.13
53270;BME280;39159;45.634;9.420;2023-04-28T03:41:58;99155.22;;;10.49;100.00
53270;BME280;39159;45.634;9.420;2023-04-28T03:44:23;99165.22;;;10.54;99.71
53270;BME280;39159;45.634;9.420;2023-04-28T03:46:48;99163.81;;;10.56;98.75
53270;BME280;39159;45.634;9.420;2023-04-28T03:49:14;99167.13;;;10.53;99.25
53270;BME280;39159;45.634;9.420;2023-04-28T03:51:40;99172.78;;;10.57;99.07
53270;BME280;39159;45.634;9.420;2023-04-28T03:54:06;99172.00;;;10.56;98.99
53270;BME280;39159;45.634;9.420;2023-04-28T03:56:31;99163.47;;;10.58;99.24
53270;BME280;39159;45.634;9.420;2023-04-28T03:58:57;99155.50;;;10.62;97.96
53270;BME280;39159;45.634;9.420;2023-04-28T04:01:23;99153.56;;;10.62;97.94
53270;BME280;39159;45.634;9.420;2023-04-28T04:03:48;99144.88;;;10.60;97.49
53270;BME280;39159;45.634;9.420;2023-04-28T04:06:14;99142.16;;;10.60;96.97
53270;BME280;39159;45.634;9.420;2023-04-28T04:08:40;99146.31;;;10.57;97.34
53270;BME280;39159;45.634;9.420;2023-04-28T04:11:06;99148.53;;;10.55;97.52
53270;BME280;39159;45.634;9.420;2023-04-28T04:13:31;99144.38;;;10.58;97.17
53270;BME280;39159;45.634;9.420;2023-04-28T04:15:57;99143.78;;;10.61;97.33
53270;BME280;39159;45.634;9.420;2023-04-28T04:18:23;99140.16;;;10.66;98.71
53270;BME280;39159;45.634;9.420;2023-04-28T04:20:48;99143.06;;;10.69;98.11
53270;BME280;39159;45.634;9.420;2023-04-28T04:23:14;99143.28;;;10.73;97.68
53270;BME280;39159;45.634;9.420;2023-04-28T04:25:40;99140.53;;;10.73;98.02
53270;BME280;39159;45.634;9.420;2023-04-28T04:28:06;99146.81;;;10.73;97.55
53270;BME280;39159;45.634;9.420;2023-04-28T04:30:32;99144.28;;;10.77;98.24
53270;BME280;39159;45.634;9.420;2023-04-28T04:32:58;99144.16;;;10.82;96.99
53270;BME280;39159;45.634;9.420;2023-04-28T04:35:23;99145.19;;;10.86;97.29
53270;BME280;39159;45.634;9.420;2023-04-28T04:37:49;99139.44;;;10.88;96.74
53270;BME280;39159;45.634;9.420;2023-04-28T04:40:15;99130.91;;;10.89;97.41
53270;BME280;39159;45.634;9.420;2023-04-28T04:42:41;99130.91;;;10.89;97.12
53270;BME280;39159;45.634;9.420;2023-04-28T04:45:07;99126.38;;;10.98;100.00
53270;BME280;39159;45.634;9.420;2023-04-28T04:47:33;99135.31;;;11.13;100.00
53270;BME280;39159;45.634;9.420;2023-04-28T04:49:58;99135.94;;;11.10;99.08
53270;BME280;39159;45.634;9.420;2023-04-28T04:52:24;99136.97;;;11.14;100.00
53270;BME280;39159;45.634;9.420;2023-04-28T04:54:49;99142.59;;;11.17;100.00
53270;BME280;39159;45.634;9.420;2023-04-28T04:57:15;99135.72;;;11.20;99.13
53270;BME280;39159;45.634;9.420;2023-04-28T04:59:41;99146.03;;;11.23;98.39
53270;BME280;39159;45.634;9.420;2023-04-28T05:02:07;99155.53;;;11.26;97.92
53270;BME280;39159;45.634;9.420;2023-04-28T05:04:32;99156.53;;;11.30;96.87
53270;BME280;39159;45.634;9.420;2023-04-28T05:06:58;99168.97;;;11.36;97.22
53270;BME280;39159;45.634;9.420;2023-04-28T05:09:23;99169.16;;;11.39;96.57
53270;BME280;39159;45.634;9.420;2023-04-28T05:11:48;99160.53;;;11.46;96.21
53270;BME280;39159;45.634;9.420;2023-04-28T05:14:14;99162.97;;;11.48;96.92
53270;BME280;39159;45.634;9.420;2023-04-28T05:16:40;99168.59;;;11.51;97.68
53270;BME280;39159;45.634;9.420;2023-04-28T05:19:06;99176.50;;;11.53;98.28
53270;BME280;39159;45.634;9.420;2023-04-28T05:21:32;99182.59;;;11.50;97.12
53270;BME280;39159;45.634;9.420;2023-04-28T05:23:57;99185.25;;;11.41;98.11
53270;BME280;39159;45.634;9.420;2023-04-28T05:26:23;99190.00;;;11.35;99.96
53270;BME280;39159;45.634;9.420;2023-04-28T05:28:48;99195.09;;;11.28;100.00
53270;BME280;39159;45.634;9.420;2023-04-28T05:31:14;99189.84;;;11.32;100.00
53270;BME280;39159;45.634;9.420;2023-04-28T05:33:40;99192.16;;;11.38;100.00
53270;BME280;39159;45.634;9.420;2023-04-28T05:36:06;99200.84;;;11.40;99.77
53270;BME280;39159;45.634;9.420;2023-04-28T05:38:33;99208.22;;;11.40;99.52
53270;BME280;39159;45.634;9.420;2023-04-28T05:40:59;99205.19;;;11.41;99.12
53270;BME280;39159;45.634;9.420;2023-04-28T05:43:25;99212.28;;;11.29;98.56
53270;BME280;39159;45.634;9.420;2023-04-28T05:45:50;99209.16;;;11.35;100.00
53270;BME280;39159;45.634;9.420;2023-04-28T05:48:16;99209.16;;;11.35;99.75
53270;BME280;39159;45.634;9.420;2023-04-28T05:50:41;99213.38;;;11.41;100.00
53270;BME280;39159;45.634;9.420;2023-04-28T05:53:07;99201.91;;;11.53;99.87
53270;BME280;39159;45.634;9.420;2023-04-28T05:55:33;99205.31;;;11.73;98.20
53270;BME280;39159;45.634;9.420;2023-04-28T05:58:01;99210.13;;;11.76;98.94
53270;BME280;39159;45.634;9.420;2023-04-28T06:00:26;99200.53;;;11.78;97.66
53270;BME280;39159;45.634;9.420;2023-04-28T06:02:52;99201.09;;;11.89;97.73
53270;BME280;39159;45.634;9.420;2023-04-28T06:05:17;99202.00;;;11.98;95.64
53270;BME280;39159;45.634;9.420;2023-04-28T06:07:43;99212.19;;;12.07;93.11
53270;BME280;39159;45.634;9.420;2023-04-28T06:10:09;99211.75;;;12.13;90.99
53270;BME280;39159;45.634;9.420;2023-04-28T06:12:34;99215.47;;;12.17;90.50
53270;BME280;39159;45.634;9.420;2023-04-28T06:15:01;99215.16;;;12.19;91.85
53270;BME280;39159;45.634;9.420;2023-04-28T06:17:26;99216.72;;;12.11;91.29
53270;BME280;39159;45.634;9.420;2023-04-28T06:19:52;99224.13;;;12.11;91.28
53270;BME280;39159;45.634;9.420;2023-04-28T06:22:19;99221.38;;;12.11;92.71
53270;BME280;39159;45.634;9.420;2023-04-28T06:24:44;99230.81;;;12.05;91.25
53270;BME280;39159;45.634;9.420;2023-04-28T06:27:10;99227.34;;;12.13;92.13
53270;BME280;39159;45.634;9.420;2023-04-28T06:29:36;99222.50;;;12.10;90.95
53270;BME280;39159;45.634;9.420;2023-04-28T06:32:01;99221.25;;;12.16;91.50
53270;BME280;39159;45.634;9.420;2023-04-28T06:34:27;99221.00;;;12.26;89.50
53270;BME280;39159;45.634;9.420;2023-04-28T06:36:53;99227.63;;;12.34;88.68
53270;BME280;39159;45.634;9.420;2023-04-28T06:39:20;99215.44;;;12.40;89.18
53270;BME280;39159;45.634;9.420;2023-04-28T06:41:46;99206.84;;;12.55;88.51
53270;BME280;39159;45.634;9.420;2023-04-28T06:44:11;99206.59;;;12.74;89.87
53270;BME280;39159;45.634;9.420;2023-04-28T06:46:37;99203.25;;;12.86;90.96
53270;BME280;39159;45.634;9.420;2023-04-28T06:49:03;99204.59;;;12.97;90.14
53270;BME280;39159;45.634;9.420;2023-04-28T06:51:30;99205.13;;;13.17;88.01
53270;BME280;39159;45.634;9.420;2023-04-28T06:53:57;99207.91;;;13.25;88.03
53270;BME280;39159;45.634;9.420;2023-04-28T06:56:23;99207.06;;;13.25;89.22
53270;BME280;39159;45.634;9.420;2023-04-28T06:58:48;99206.75;;;13.26;86.16
53270;BME280;39159;45.634;9.420;2023-04-28T07:01:14;99210.63;;;13.25;82.23
53270;BME280;39159;45.634;9.420;2023-04-28T07:03:39;99215.28;;;13.25;82.66
53270;BME280;39159;45.634;9.420;2023-04-28T07:06:05;99211.97;;;13.28;81.87
53270;BME280;39159;45.634;9.420;2023-04-28T07:08:31;99215.03;;;13.35;80.29
53270;BME280;39159;45.634;9.420;2023-04-28T07:10:56;99211.34;;;13.66;79.34
53270;BME280;39159;45.634;9.420;2023-04-28T07:13:22;99203.44;;;13.99;78.72
53270;BME280;39159;45.634;9.420;2023-04-28T07:15:47;99216.31;;;14.25;74.15
53270;BME280;39159;45.634;9.420;2023-04-28T07:18:13;99206.72;;;14.66;73.17
53270;BME280;39159;45.634;9.420;2023-04-28T07:20:38;99200.88;;;15.06;71.86
53270;BME280;39159;45.634;9.420;2023-04-28T07:23:04;99204.22;;;15.41;69.80
53270;BME280;39159;45.634;9.420;2023-04-28T07:25:30;99202.81;;;15.56;60.04
53270;BME280;39159;45.634;9.420;2023-04-28T07:27:56;99196.56;;;15.26;59.70
53270;BME280;39159;45.634;9.420;2023-04-28T07:30:21;99204.41;;;15.36;60.82
53270;BME280;39159;45.634;9.420;2023-04-28T07:32:47;99208.47;;;15.60;58.63
53270;BME280;39159;45.634;9.420;2023-04-28T07:35:13;99210.97;;;15.94;58.21
53270;BME280;39159;45.634;9.420;2023-04-28T07:37:38;99210.22;;;16.06;56.03
53270;BME280;39159;45.634;9.420;2023-04-28T07:40:05;99206.19;;;16.04;56.44
53270;BME280;39159;45.634;9.420;2023-04-28T07:42:31;99208.16;;;16.03;55.50
53270;BME280;39159;45.634;9.420;2023-04-28T07:44:56;99222.41;;;16.17;56.03
53270;BME280;39159;45.634;9.420;2023-04-28T07:47:23;99216.97;;;16.09;56.54
53270;BME280;39159;45.634;9.420;2023-04-28T07:49:49;99215.31;;;15.95;57.24
53270;BME280;39159;45.634;9.420;2023-04-28T07:52:15;99215.84;;;16.10;55.80
53270;BME280;39159;45.634;9.420;2023-04-28T07:54:40;99212.56;;;15.95;55.08
53270;BME280;39159;45.634;9.420;2023-04-28T07:57:06;99213.59;;;15.91;54.71
53270;BME280;39159;45.634;9.420;2023-04-28T07:59:32;99216.19;;;15.66;56.81
53270;BME280;39159;45.634;9.420;2023-04-28T08:01:58;99209.78;;;15.83;56.15
53270;BME280;39159;45.634;9.420;2023-04-28T08:04:24;99201.34;;;16.01;52.93
53270;BME280;39159;45.634;9.420;2023-04-28T08:06:49;99214.06;;;16.26;50.48
53270;BME280;39159;45.634;9.420;2023-04-28T08:09:15;99213.09;;;16.55;49.94
53270;BME280;39159;45.634;9.420;2023-04-28T08:11:40;99207.41;;;16.73;47.07
53270;BME280;39159;45.634;9.420;2023-04-28T08:14:06;99204.09;;;16.80;43.81
53270;BME280;39159;45.634;9.420;2023-04-28T08:16:32;99213.75;;;16.86;42.35
53270;BME280;39159;45.634;9.420;2023-04-28T08:18:58;99214.59;;;16.98;44.70
53270;BME280;39159;45.634;9.420;2023-04-28T08:21:24;99207.44;;;17.22;46.80
53270;BME280;39159;45.634;9.420;2023-04-28T08:23:52;99212.41;;;17.69;45.18
53270;BME280;39159;45.634;9.420;2023-04-28T08:26:18;99210.34;;;17.66;45.11
53270;BME280;39159;45.634;9.420;2023-04-28T08:28:43;99212.41;;;17.69;45.39
53270;BME280;39159;45.634;9.420;2023-04-28T08:31:09;99202.75;;;17.75;43.99
53270;BME280;39159;45.634;9.420;2023-04-28T08:33:34;99215.41;;;18.17;43.71
53270;BME280;39159;45.634;9.420;2023-04-28T08:36:00;99209.66;;;17.69;41.75
53270;BME280;39159;45.634;9.420;2023-04-28T08:38:25;99200.38;;;17.49;42.30
53270;BME280;39159;45.634;9.420;2023-04-28T08:40:51;99203.38;;;17.44;40.46
53270;BME280;39159;45.634;9.420;2023-04-28T08:43:16;99202.66;;;17.59;40.54
53270;BME280;39159;45.634;9.420;2023-04-28T08:45:43;99203.91;;;17.74;39.81
53270;BME280;39159;45.634;9.420;2023-04-28T08:48:17;99212.28;;;17.90;40.29
53270;BME280;39159;45.634;9.420;2023-04-28T08:50:51;99218.19;;;18.05;39.24
53270;BME280;39159;45.634;9.420;2023-04-28T08:53:25;99217.13;;;17.81;40.19
53270;BME280;39159;45.634;9.420;2023-04-28T08:55:53;99213.28;;;17.98;40.04
53270;BME280;39159;45.634;9.420;2023-04-28T08:58:24;99212.88;;;18.56;40.22
53270;BME280;39159;45.634;9.420;2023-04-28T09:00:53;99200.69;;;18.73;39.53
53270;BME280;39159;45.634;9.420;2023-04-28T09:03:19;99194.63;;;18.99;38.38
53270;BME280;39159;45.634;9.420;2023-04-28T09:05:44;99194.97;;;19.13;37.78
53270;BME280;39159;45.634;9.420;2023-04-28T09:08:10;99198.63;;;19.17;37.79
53270;BME280;39159;45.634;9.420;2023-04-28T09:10:39;99199.13;;;19.23;38.04
53270;BME280;39159;45.634;9.420;2023-04-28T09:13:05;99211.09;;;19.27;36.04
53270;BME280;39159;45.634;9.420;2023-04-28T09:17:58;99198.66;;;18.86;36.49
53270;BME280;39159;45.634;9.420;2023-04-28T09:20:28;99194.56;;;18.79;36.75
53270;BME280;39159;45.634;9.420;2023-04-28T09:23:13;99202.91;;;18.83;36.37
53270;BME280;39159;45.634;9.420;2023-04-28T09:25:39;99201.81;;;18.72;38.22
53270;BME280;39159;45.634;9.420;2023-04-28T09:28:21;99201.44;;;18.86;37.86
53270;BME280;39159;45.634;9.420;2023-04-28T09:30:46;99200.34;;;19.06;37.82
53270;BME280;39159;45.634;9.420;2023-04-28T09:33:12;99195.66;;;19.26;37.68
53270;BME280;39159;45.634;9.420;2023-04-28T09:35:39;99188.69;;;19.16;36.32
53270;BME280;39159;45.634;9.420;2023-04-28T09:38:05;99170.59;;;19.19;36.59
53270;BME280;39159;45.634;9.420;2023-04-28T09:40:30;99178.72;;;19.28;35.94
53270;BME280;39159;45.634;9.420;2023-04-28T09:42:56;99189.00;;;19.46;35.53
53270;BME280;39159;45.634;9.420;2023-04-28T09:45:22;99172.94;;;19.52;36.11
53270;BME280;39159;45.634;9.420;2023-04-28T09:47:48;99175.25;;;19.85;36.28
53270;BME280;39159;45.634;9.420;2023-04-28T09:50:15;99161.50;;;20.12;36.99
53270;BME280;39159;45.634;9.420;2023-04-28T09:52:42;99170.41;;;20.44;35.51
53270;BME280;39159;45.634;9.420;2023-04-28T09:55:13;99167.94;;;20.39;35.68
53270;BME280;39159;45.634;9.420;2023-04-28T09:57:39;99158.75;;;20.35;36.41
53270;BME280;39159;45.634;9.420;2023-04-28T10:00:06;99161.16;;;20.37;36.23
53270;BME280;39159;45.634;9.420;2023-04-28T10:02:34;99157.53;;;20.56;35.89
53270;BME280;39159;45.634;9.420;2023-04-28T10:05:00;99162.44;;;20.43;35.33
53270;BME280;39159;45.634;9.420;2023-04-28T10:07:26;99163.78;;;20.72;35.24
53270;BME280;39159;45.634;9.420;2023-04-28T10:09:53;99164.81;;;20.87;34.18
53270;BME280;39159;45.634;9.420;2023-04-28T10:12:20;99158.41;;;20.83;36.06
53270;BME280;39159;45.634;9.420;2023-04-28T10:14:46;99157.34;;;20.91;35.23
53270;BME280;39159;45.634;9.420;2023-04-28T10:17:15;99153.88;;;20.98;34.94
53270;BME280;39159;45.634;9.420;2023-04-28T10:19:45;99148.97;;;20.87;34.79
53270;BME280;39159;45.634;9.420;2023-04-28T10:25:36;99146.84;;;20.77;34.59
53270;BME280;39159;45.634;9.420;2023-04-28T10:28:07;99149.75;;;20.61;34.66
53270;BME280;39159;45.634;9.420;2023-04-28T10:30:33;99147.63;;;20.78;33.97
53270;BME280;39159;45.634;9.420;2023-04-28T10:38:08;99143.34;;;21.37;33.08
53270;BME280;39159;45.634;9.420;2023-04-28T10:40:38;99142.78;;;21.24;33.98
53270;BME280;39159;45.634;9.420;2023-04-28T10:43:08;99138.34;;;21.46;35.96
53270;BME280;39159;45.634;9.420;2023-04-28T10:56:23;99137.91;;;22.08;33.67
53270;BME280;39159;45.634;9.420;2023-04-28T10:58:50;99121.75;;;22.21;33.61
53270;BME280;39159;45.634;9.420;2023-04-28T11:06:27;99114.47;;;22.47;33.80
53270;BME280;39159;45.634;9.420;2023-04-28T11:08:55;99108.75;;;22.81;34.98
53270;BME280;39159;45.634;9.420;2023-04-28T11:11:23;99108.22;;;23.16;32.86
53270;BME280;39159;45.634;9.420;2023-04-28T11:13:51;99110.69;;;23.28;33.12
53270;BME280;39159;45.634;9.420;2023-04-28T11:16:21;99099.94;;;22.68;33.14
53270;BME280;39159;45.634;9.420;2023-04-28T11:18:56;99096.63;;;23.03;33.54
53270;BME280;39159;45.634;9.420;2023-04-28T11:21:24;99084.88;;;23.38;32.62
53270;BME280;39159;45.634;9.420;2023-04-28T11:23:50;99076.50;;;23.31;32.20
53270;BME280;39159;45.634;9.420;2023-04-28T11:26:17;99074.28;;;22.96;33.57
53270;BME280;39159;45.634;9.420;2023-04-28T11:28:47;99061.31;;;23.18;33.78
53270;BME280;39159;45.634;9.420;2023-04-28T11:31:13;99059.72;;;23.21;34.02
53270;BME280;39159;45.634;9.420;2023-04-28T11:33:45;99065.53;;;22.94;33.99
53270;BME280;39159;45.634;9.420;2023-04-28T11:36:31;99066.66;;;22.82;33.78
53270;BME280;39159;45.634;9.420;2023-04-28T11:38:58;99059.94;;;22.90;33.18
53270;BME280;39159;45.634;9.420;2023-04-28T11:41:24;99046.22;;;23.23;32.03
53270;BME280;39159;45.634;9.420;2023-04-28T11:43:51;99050.72;;;22.75;33.41
53270;BME280;39159;45.634;9.420;2023-04-28T11:46:22;99042.41;;;22.83;33.33
53270;BME280;39159;45.634;9.420;2023-04-28T11:48:48;99044.56;;;23.04;33.25
53270;BME280;39159;45.634;9.420;2023-04-28T11:51:34;99041.38;;;22.50;34.25
53270;BME280;39159;45.634;9.420;2023-04-28T11:54:01;99031.81;;;23.03;34.19
53270;BME280;39159;45.634;9.420;2023-04-28T11:56:28;99040.03;;;22.81;33.97
53270;BME280;39159;45.634;9.420;2023-04-28T11:59:07;99035.38;;;23.00;34.11
53270;BME280;39159;45.634;9.420;2023-04-28T12:01:42;99030.16;;;22.98;35.47
53270;BME280;39159;45.634;9.420;2023-04-28T12:04:08;99027.19;;;23.35;35.06
53270;BME280;39159;45.634;9.420;2023-04-28T12:06:34;99028.34;;;23.27;35.39
53270;BME280;39159;45.634;9.420;2023-04-28T12:08:59;99029.31;;;23.78;33.65
53270;BME280;39159;45.634;9.420;2023-04-28T12:11:29;99028.84;;;23.58;33.15
53270;BME280;39159;45.634;9.420;2023-04-28T12:14:06;99034.72;;;23.31;32.84
53270;BME280;39159;45.634;9.420;2023-04-28T12:16:42;99031.63;;;23.51;33.87
53270;BME280;39159;45.634;9.420;2023-04-28T12:19:09;99032.44;;;23.62;33.59
53270;BME280;39159;45.634;9.420;2023-04-28T12:21:37;99028.09;;;23.68;33.51
53270;BME280;39159;45.634;9.420;2023-04-28T12:24:19;99020.97;;;23.85;33.44
53270;BME280;39159;45.634;9.420;2023-04-28T12:26:47;99015.81;;;23.98;32.71
53270;BME280;39159;45.634;9.420;2023-04-28T12:29:34;99013.44;;;24.29;32.29
53270;BME280;39159;45.634;9.420;2023-04-28T12:32:01;99013.44;;;24.22;33.29
53270;BME280;39159;45.634;9.420;2023-04-28T12:34:27;99007.44;;;23.84;32.69
53270;BME280;39159;45.634;9.420;2023-04-28T12:36:53;99010.38;;;23.10;34.64
53270;BME280;39159;45.634;9.420;2023-04-28T12:39:19;99012.50;;;23.42;34.31
53270;BME280;39159;45.634;9.420;2023-04-28T12:41:47;98997.03;;;23.59;33.89
53270;BME280;39159;45.634;9.420;2023-04-28T12:44:12;98994.25;;;23.59;33.87
53270;BME280;39159;45.634;9.420;2023-04-28T12:46:39;98984.28;;;23.65;34.41
53270;BME280;39159;45.634;9.420;2023-04-28T12:49:05;98976.72;;;23.55;34.75
53270;BME280;39159;45.634;9.420;2023-04-28T12:51:31;98978.78;;;23.94;36.50
53270;BME280;39159;45.634;9.420;2023-04-28T12:53:59;98979.19;;;23.99;33.38
53270;BME280;39159;45.634;9.420;2023-04-28T12:56:25;98986.22;;;23.40;34.16
53270;BME280;39159;45.634;9.420;2023-04-28T12:58:50;98979.97;;;23.82;34.92
53270;BME280;39159;45.634;9.420;2023-04-28T13:01:16;98978.38;;;23.85;34.33
53270;BME280;39159;45.634;9.420;2023-04-28T13:03:42;98979.56;;;23.98;33.74
53270;BME280;39159;45.634;9.420;2023-04-28T13:06:08;98973.63;;;23.99;34.39
53270;BME280;39159;45.634;9.420;2023-04-28T13:08:35;98972.03;;;24.24;34.92
53270;BME280;39159;45.634;9.420;2023-04-28T13:11:01;98964.81;;;24.44;33.70
53270;BME280;39159;45.634;9.420;2023-04-28T13:13:28;98958.84;;;24.35;34.68
53270;BME280;39159;45.634;9.420;2023-04-28T13:15:54;98953.28;;;24.13;33.82
53270;BME280;39159;45.634;9.420;2023-04-28T13:18:19;98952.09;;;23.78;33.26
53270;BME280;39159;45.634;9.420;2023-04-28T13:20:45;98945.31;;;23.94;36.81
53270;BME280;39159;45.634;9.420;2023-04-28T13:23:10;98944.13;;;24.09;34.70